sensor_id;sensor_type;location;lat;lon;timestamp;pressure;altitude;pressure_sealevel;temperature;humidity
76201;BME280;64981;52.930;9.266;2024-03-23T00:54:19;100557.34;;;8.05;78.22
76201;BME280;64981;52.930;9.266;2024-03-23T00:56:45;100567.06;;;8.05;78.24
76201;BME280;64981;52.930;9.266;2024-03-23T00:59:10;100556.38;;;8.06;77.78
76201;BME280;64981;52.930;9.266;2024-03-23T01:01:37;100559.31;;;8.03;78.67
76201;BME280;64981;52.930;9.266;2024-03-23T01:04:02;100543.16;;;7.98;78.50
76201;BME280;64981;52.930;9.266;2024-03-23T01:06:28;100544.03;;;8.07;78.03
76201;BME280;64981;52.930;9.266;2024-03-23T01:08:54;100555.78;;;7.95;78.50
76201;BME280;64981;52.930;9.266;2024-03-23T01:11:19;100565.09;;;8.07;78.21
76201;BME280;64981;52.930;9.266;2024-03-23T01:13:45;100555.66;;;7.87;78.43
76201;BME280;64981;52.930;9.266;2024-03-23T01:16:10;100540.50;;;7.81;78.98
76201;BME280;64981;52.930;9.266;2024-03-23T01:18:36;100554.88;;;7.86;78.84
76201;BME280;64981;52.930;9.266;2024-03-23T01:21:02;100548.72;;;7.95;78.57
76201;BME280;64981;52.930;9.266;2024-03-23T01:23:27;100546.69;;;7.89;78.16
76201;BME280;64981;52.930;9.266;2024-03-23T01:25:53;100531.81;;;7.80;78.38
76201;BME280;64981;52.930;9.266;2024-03-23T01:28:20;100544.66;;;7.83;78.71
76201;BME280;64981;52.930;9.266;2024-03-23T01:30:45;100547.41;;;7.82;78.58
76201;BME280;64981;52.930;9.266;2024-03-23T01:33:11;100542.31;;;7.80;78.46
76201;BME280;64981;52.930;9.266;2024-03-23T01:35:38;100530.69;;;7.83;78.42
76201;BME280;64981;52.930;9.266;2024-03-23T01:38:03;100517.28;;;7.76;78.39
76201;BME280;64981;52.930;9.266;2024-03-23T01:40:29;100506.53;;;7.70;78.64
76201;BME280;64981;52.930;9.266;2024-03-23T01:42:58;100508.72;;;7.74;78.68
76201;BME280;64981;52.930;9.266;2024-03-23T01:45:24;100503.91;;;7.70;78.93
76201;BME280;64981;52.930;9.266;2024-03-23T01:47:51;100491.97;;;7.75;78.36
76201;BME280;64981;52.930;9.266;2024-03-23T01:50:19;100495.56;;;7.74;78.54
76201;BME280;64981;52.930;9.266;2024-03-23T01:52:46;100491.75;;;7.69;78.38
76201;BME280;64981;52.930;9.266;2024-03-23T01:55:11;100491.91;;;7.67;78.38
76201;BME280;64981;52.930;9.266;2024-03-23T01:57:37;100486.56;;;7.77;78.26
76201;BME280;64981;52.930;9.266;2024-03-23T02:00:03;100484.63;;;7.79;78.12
76201;BME280;64981;52.930;9.266;2024-03-23T02:02:29;100493.41;;;7.70;78.38
76201;BME280;64981;52.930;9.266;2024-03-23T02:04:54;100488.69;;;7.73;78.70
76201;BME280;64981;52.930;9.266;2024-03-23T02:07:20;100481.44;;;7.75;78.21
76201;BME280;64981;52.930;9.266;2024-03-23T02:09:46;100464.31;;;7.71;78.41
76201;BME280;64981;52.930;9.266;2024-03-23T02:12:11;100477.47;;;7.71;78.36
76201;BME280;64981;52.930;9.266;2024-03-23T02:14:37;100476.28;;;7.65;78.64
76201;BME280;64981;52.930;9.266;2024-03-23T02:17:02;100477.53;;;7.61;78.52
76201;BME280;64981;52.930;9.266;2024-03-23T02:19:28;100476.03;;;7.59;78.41
76201;BME280;64981;52.930;9.266;2024-03-23T02:21:54;100471.84;;;7.48;78.55
76201;BME280;64981;52.930;9.266;2024-03-23T02:24:19;100478.59;;;7.51;78.60
76201;BME280;64981;52.930;9.266;2024-03-23T02:26:45;100475.66;;;7.54;78.81
76201;BME280;64981;52.930;9.266;2024-03-23T02:29:13;100478.28;;;7.54;78.76
76201;BME280;64981;52.930;9.266;2024-03-23T02:31:39;100466.28;;;7.51;78.27
76201;BME280;64981;52.930;9.266;2024-03-23T02:34:04;100470.41;;;7.54;78.47
76201;BME280;64981;52.930;9.266;2024-03-23T02:36:30;100463.25;;;7.46;78.79
76201;BME280;64981;52.930;9.266;2024-03-23T02:38:56;100457.94;;;7.56;78.27
76201;BME280;64981;52.930;9.266;2024-03-23T02:41:22;100459.06;;;7.53;78.23
76201;BME280;64981;52.930;9.266;2024-03-23T02:43:49;100457.94;;;7.56;78.19
76201;BME280;64981;52.930;9.266;2024-03-23T02:46:15;100451.66;;;7.49;78.34
76201;BME280;64981;52.930;9.266;2024-03-23T02:48:41;100444.72;;;7.48;78.41
76201;BME280;64981;52.930;9.266;2024-03-23T02:51:06;100446.47;;;7.57;77.99
76201;BME280;64981;52.930;9.266;2024-03-23T02:53:32;100448.44;;;7.55;78.14
76201;BME280;64981;52.930;9.266;2024-03-23T02:55:58;100446.09;;;7.52;78.35
76201;BME280;64981;52.930;9.266;2024-03-23T02:58:24;100448.19;;;7.48;78.40
76201;BME280;64981;52.930;9.266;2024-03-23T03:00:50;100445.56;;;7.48;78.25
76201;BME280;64981;52.930;9.266;2024-03-23T03:03:15;100454.94;;;7.51;78.37
76201;BME280;64981;52.930;9.266;2024-03-23T03:05:41;100432.03;;;7.43;78.13
76201;BME280;64981;52.930;9.266;2024-03-23T03:08:07;100424.00;;;7.45;78.82
76201;BME280;64981;52.930;9.266;2024-03-23T03:10:32;100419.78;;;7.34;78.79
76201;BME280;64981;52.930;9.266;2024-03-23T03:13:00;100419.88;;;7.42;78.44
76201;BME280;64981;52.930;9.266;2024-03-23T03:15:26;100417.31;;;7.33;78.55
76201;BME280;64981;52.930;9.266;2024-03-23T03:17:51;100427.78;;;7.42;78.26
76201;BME280;64981;52.930;9.266;2024-03-23T03:20:17;100429.75;;;7.31;78.28
76201;BME280;64981;52.930;9.266;2024-03-23T03:22:43;100419.94;;;7.33;78.61
76201;BME280;64981;52.930;9.266;2024-03-23T03:25:09;100417.16;;;7.34;78.52
76201;BME280;64981;52.930;9.266;2024-03-23T03:27:34;100408.25;;;7.45;77.72
76201;BME280;64981;52.930;9.266;2024-03-23T03:30:01;100416.03;;;7.37;78.50
76201;BME280;64981;52.930;9.266;2024-03-23T03:32:30;100414.00;;;7.31;78.59
76201;BME280;64981;52.930;9.266;2024-03-23T03:34:56;100404.78;;;7.27;78.86
76201;BME280;64981;52.930;9.266;2024-03-23T03:37:21;100411.38;;;7.31;78.64
76201;BME280;64981;52.930;9.266;2024-03-23T03:39:47;100414.69;;;7.33;78.21
76201;BME280;64981;52.930;9.266;2024-03-23T03:42:12;100409.88;;;7.28;78.39
76201;BME280;64981;52.930;9.266;2024-03-23T03:44:38;100408.16;;;7.37;78.24
76201;BME280;64981;52.930;9.266;2024-03-23T03:47:05;100402.00;;;7.28;78.68
76201;BME280;64981;52.930;9.266;2024-03-23T03:49:31;100401.88;;;7.30;78.13
76201;BME280;64981;52.930;9.266;2024-03-23T03:51:56;100400.72;;;7.32;78.54
76201;BME280;64981;52.930;9.266;2024-03-23T03:54:22;100379.56;;;7.34;78.43
76201;BME280;64981;52.930;9.266;2024-03-23T03:56:48;100380.53;;;7.33;77.93
76201;BME280;64981;52.930;9.266;2024-03-23T03:59:13;100377.44;;;7.37;78.02
76201;BME280;64981;52.930;9.266;2024-03-23T04:01:39;100373.09;;;7.28;78.42
76201;BME280;64981;52.930;9.266;2024-03-23T04:04:05;100369.03;;;7.34;78.35
76201;BME280;64981;52.930;9.266;2024-03-23T04:06:31;100362.06;;;7.25;77.71
76201;BME280;64981;52.930;9.266;2024-03-23T04:08:59;100375.28;;;7.33;78.06
76201;BME280;64981;52.930;9.266;2024-03-23T04:11:24;100381.66;;;7.30;78.52
76201;BME280;64981;52.930;9.266;2024-03-23T04:13:50;100385.41;;;7.28;78.06
76201;BME280;64981;52.930;9.266;2024-03-23T04:16:26;100393.59;;;7.25;78.70
76201;BME280;64981;52.930;9.266;2024-03-23T04:18:52;100384.88;;;7.24;78.02
76201;BME280;64981;52.930;9.266;2024-03-23T04:21:18;100385.28;;;7.29;78.23
76201;BME280;64981;52.930;9.266;2024-03-23T04:23:43;100378.44;;;7.36;77.62
76201;BME280;64981;52.930;9.266;2024-03-23T04:26:09;100364.09;;;7.31;77.96
76201;BME280;64981;52.930;9.266;2024-03-23T04:28:35;100350.94;;;7.31;77.76
76201;BME280;64981;52.930;9.266;2024-03-23T04:31:05;100344.19;;;7.28;77.62
76201;BME280;64981;52.930;9.266;2024-03-23T04:33:31;100342.34;;;7.21;78.05
76201;BME280;64981;52.930;9.266;2024-03-23T04:35:56;100363.00;;;7.33;77.64
76201;BME280;64981;52.930;9.266;2024-03-23T04:38:22;100382.19;;;7.16;78.13
76201;BME280;64981;52.930;9.266;2024-03-23T04:40:58;100395.84;;;7.20;78.28
76201;BME280;64981;52.930;9.266;2024-03-23T04:43:24;100380.09;;;7.20;78.18
76201;BME280;64981;52.930;9.266;2024-03-23T04:45:49;100381.50;;;7.14;78.29
76201;BME280;64981;52.930;9.266;2024-03-23T04:48:15;100373.25;;;7.27;77.90
76201;BME280;64981;52.930;9.266;2024-03-23T04:50:41;100376.13;;;7.33;77.67
76201;BME280;64981;52.930;9.266;2024-03-23T04:53:07;100372.88;;;7.22;77.88
76201;BME280;64981;52.930;9.266;2024-03-23T04:55:32;100377.59;;;7.18;78.04
76201;BME280;64981;52.930;9.266;2024-03-23T04:57:58;100374.72;;;7.11;78.32
76201;BME280;64981;52.930;9.266;2024-03-23T05:00:24;100375.44;;;7.14;77.97
76201;BME280;64981;52.930;9.266;2024-03-23T05:02:50;100368.38;;;7.14;78.18
76201;BME280;64981;52.930;9.266;2024-03-23T05:05:16;100356.88;;;7.15;78.47
76201;BME280;64981;52.930;9.266;2024-03-23T05:07:41;100347.72;;;7.19;78.18
76201;BME280;64981;52.930;9.266;2024-03-23T05:10:09;100344.88;;;7.13;78.15
76201;BME280;64981;52.930;9.266;2024-03-23T05:12:37;100346.19;;;6.99;78.59
76201;BME280;64981;52.930;9.266;2024-03-23T05:15:05;100345.41;;;6.98;78.63
76201;BME280;64981;52.930;9.266;2024-03-23T05:17:32;100338.50;;;7.15;78.20
76201;BME280;64981;52.930;9.266;2024-03-23T05:19:58;100328.44;;;7.10;78.30
76201;BME280;64981;52.930;9.266;2024-03-23T05:22:23;100320.94;;;7.16;77.90
76201;BME280;64981;52.930;9.266;2024-03-23T05:24:49;100337.53;;;7.16;78.03
76201;BME280;64981;52.930;9.266;2024-03-23T05:27:15;100337.91;;;7.03;78.44
76201;BME280;64981;52.930;9.266;2024-03-23T05:29:40;100337.06;;;7.03;77.89
76201;BME280;64981;52.930;9.266;2024-03-23T05:32:06;100325.72;;;7.02;77.93
76201;BME280;64981;52.930;9.266;2024-03-23T05:34:32;100324.47;;;7.06;77.31
76201;BME280;64981;52.930;9.266;2024-03-23T05:36:57;100325.44;;;7.05;77.91
76201;BME280;64981;52.930;9.266;2024-03-23T05:39:23;100306.31;;;6.95;77.71
76201;BME280;64981;52.930;9.266;2024-03-23T05:41:49;100326.13;;;7.07;78.09
76201;BME280;64981;52.930;9.266;2024-03-23T05:44:15;100322.00;;;7.05;77.86
76201;BME280;64981;52.930;9.266;2024-03-23T05:46:41;100320.03;;;6.89;78.21
76201;BME280;64981;52.930;9.266;2024-03-23T05:49:07;100310.56;;;6.96;78.30
76201;BME280;64981;52.930;9.266;2024-03-23T05:51:32;100318.22;;;6.90;78.62
76201;BME280;64981;52.930;9.266;2024-03-23T05:53:58;100317.13;;;6.92;78.63
76201;BME280;64981;52.930;9.266;2024-03-23T05:56:24;100315.28;;;6.93;78.50
76201;BME280;64981;52.930;9.266;2024-03-23T05:58:51;100332.66;;;7.03;78.56
76201;BME280;64981;52.930;9.266;2024-03-23T06:01:17;100333.72;;;7.10;78.36
76201;BME280;64981;52.930;9.266;2024-03-23T06:03:43;100322.31;;;7.02;78.15
76201;BME280;64981;52.930;9.266;2024-03-23T06:06:10;100319.94;;;6.99;78.21
76201;BME280;64981;52.930;9.266;2024-03-23T06:08:37;100317.19;;;7.00;78.39
76201;BME280;64981;52.930;9.266;2024-03-23T06:11:04;100316.06;;;7.03;78.15
76201;BME280;64981;52.930;9.266;2024-03-23T06:13:31;100303.69;;;6.95;78.16
76201;BME280;64981;52.930;9.266;2024-03-23T06:15:57;100299.09;;;6.97;78.44
76201;BME280;64981;52.930;9.266;2024-03-23T06:18:24;100309.19;;;7.02;78.05
76201;BME280;64981;52.930;9.266;2024-03-23T06:20:49;100313.31;;;7.04;78.03
76201;BME280;64981;52.930;9.266;2024-03-23T06:23:15;100304.00;;;6.92;78.26
76201;BME280;64981;52.930;9.266;2024-03-23T06:25:42;100321.06;;;6.96;77.43
76201;BME280;64981;52.930;9.266;2024-03-23T06:28:08;100314.56;;;7.00;78.04
76201;BME280;64981;52.930;9.266;2024-03-23T06:30:34;100306.38;;;7.03;76.93
76201;BME280;64981;52.930;9.266;2024-03-23T06:32:59;100301.97;;;7.04;77.00
76201;BME280;64981;52.930;9.266;2024-03-23T06:35:25;100307.97;;;7.14;76.83
76201;BME280;64981;52.930;9.266;2024-03-23T06:37:51;100301.31;;;7.02;76.06
76201;BME280;64981;52.930;9.266;2024-03-23T06:40:16;100299.31;;;7.22;75.61
76201;BME280;64981;52.930;9.266;2024-03-23T06:42:42;100306.81;;;7.34;75.62
76201;BME280;64981;52.930;9.266;2024-03-23T06:45:08;100307.41;;;7.46;75.05
76201;BME280;64981;52.930;9.266;2024-03-23T06:47:34;100298.66;;;7.63;73.93
76201;BME280;64981;52.930;9.266;2024-03-23T06:50:00;100306.03;;;8.11;72.97
76201;BME280;64981;52.930;9.266;2024-03-23T06:52:27;100310.56;;;8.68;71.21
76201;BME280;64981;52.930;9.266;2024-03-23T06:54:53;100301.28;;;9.22;68.88
76201;BME280;64981;52.930;9.266;2024-03-23T06:57:19;100294.66;;;9.75;66.89
76201;BME280;64981;52.930;9.266;2024-03-23T06:59:44;100300.31;;;10.19;64.99
76201;BME280;64981;52.930;9.266;2024-03-23T07:02:10;100304.09;;;10.71;63.29
76201;BME280;64981;52.930;9.266;2024-03-23T07:04:36;100291.75;;;11.09;62.46
76201;BME280;64981;52.930;9.266;2024-03-23T07:07:02;100299.31;;;11.80;60.17
76201;BME280;64981;52.930;9.266;2024-03-23T07:09:28;100301.34;;;12.87;57.21
76201;BME280;64981;52.930;9.266;2024-03-23T07:11:56;100310.19;;;13.58;54.91
76201;BME280;64981;52.930;9.266;2024-03-23T07:14:22;100291.63;;;13.92;53.64
76201;BME280;64981;52.930;9.266;2024-03-23T07:16:47;100295.50;;;14.58;52.33
76201;BME280;64981;52.930;9.266;2024-03-23T07:19:15;100295.19;;;14.88;51.54
76201;BME280;64981;52.930;9.266;2024-03-23T07:21:42;100298.56;;;15.55;49.59
76201;BME280;64981;52.930;9.266;2024-03-23T07:24:09;100292.00;;;15.84;48.18
76201;BME280;64981;52.930;9.266;2024-03-23T07:26:35;100290.34;;;16.16;47.23
76201;BME280;64981;52.930;9.266;2024-03-23T07:29:01;100290.66;;;16.39;47.44
76201;BME280;64981;52.930;9.266;2024-03-23T07:31:27;100288.66;;;16.28;46.63
76201;BME280;64981;52.930;9.266;2024-03-23T07:33:53;100298.88;;;16.31;46.27
76201;BME280;64981;52.930;9.266;2024-03-23T07:36:19;100292.97;;;16.29;46.17
76201;BME280;64981;52.930;9.266;2024-03-23T07:38:45;100289.34;;;16.61;45.24
76201;BME280;64981;52.930;9.266;2024-03-23T07:41:14;100289.34;;;16.55;44.79
76201;BME280;64981;52.930;9.266;2024-03-23T07:43:40;100298.94;;;16.05;46.38
76201;BME280;64981;52.930;9.266;2024-03-23T07:46:06;100302.81;;;15.96;47.18
76201;BME280;64981;52.930;9.266;2024-03-23T07:48:32;100301.19;;;15.95;47.43
76201;BME280;64981;52.930;9.266;2024-03-23T07:51:02;100306.38;;;15.57;47.65
76201;BME280;64981;52.930;9.266;2024-03-23T07:53:29;100293.44;;;15.28;47.81
76201;BME280;64981;52.930;9.266;2024-03-23T07:55:56;100309.19;;;15.09;48.30
76201;BME280;64981;52.930;9.266;2024-03-23T07:58:22;100301.72;;;14.92;49.12
76201;BME280;64981;52.930;9.266;2024-03-23T08:00:48;100301.59;;;14.52;50.17
76201;BME280;64981;52.930;9.266;2024-03-23T08:03:13;100305.13;;;14.60;49.39
76201;BME280;64981;52.930;9.266;2024-03-23T08:05:39;100297.94;;;14.60;50.29
76201;BME280;64981;52.930;9.266;2024-03-23T08:08:05;100300.91;;;14.91;49.85
76201;BME280;64981;52.930;9.266;2024-03-23T08:10:30;100288.31;;;15.20;48.46
76201;BME280;64981;52.930;9.266;2024-03-23T08:12:56;100293.44;;;15.21;49.00
76201;BME280;64981;52.930;9.266;2024-03-23T08:15:21;100295.47;;;15.06;48.89
76201;BME280;64981;52.930;9.266;2024-03-23T08:17:47;100295.31;;;14.67;49.74
76201;BME280;64981;52.930;9.266;2024-03-23T08:20:12;100297.00;;;14.33;50.06
76201;BME280;64981;52.930;9.266;2024-03-23T08:22:38;100299.34;;;14.09;49.89
76201;BME280;64981;52.930;9.266;2024-03-23T08:25:04;100310.06;;;13.03;52.01
76201;BME280;64981;52.930;9.266;2024-03-23T08:27:30;100294.00;;;13.25;52.04
76201;BME280;64981;52.930;9.266;2024-03-23T08:29:56;100291.91;;;13.00;52.97
76201;BME280;64981;52.930;9.266;2024-03-23T08:32:21;100287.72;;;13.12;54.06
76201;BME280;64981;52.930;9.266;2024-03-23T08:34:47;100288.16;;;12.79;53.79
76201;BME280;64981;52.930;9.266;2024-03-23T08:37:12;100297.50;;;12.75;54.38
76201;BME280;64981;52.930;9.266;2024-03-23T08:39:38;100299.97;;;12.77;54.11
76201;BME280;64981;52.930;9.266;2024-03-23T08:42:03;100293.97;;;12.54;54.35
76201;BME280;64981;52.930;9.266;2024-03-23T08:44:29;100294.81;;;12.54;55.24
76201;BME280;64981;52.930;9.266;2024-03-23T08:46:56;100291.03;;;12.78;55.04
76201;BME280;64981;52.930;9.266;2024-03-23T08:49:21;100304.28;;;12.78;53.79
76201;BME280;64981;52.930;9.266;2024-03-23T08:51:47;100298.06;;;12.71;54.00
76201;BME280;64981;52.930;9.266;2024-03-23T08:54:13;100302.59;;;12.56;54.75
76201;BME280;64981;52.930;9.266;2024-03-23T08:56:38;100293.28;;;12.81;54.38
76201;BME280;64981;52.930;9.266;2024-03-23T08:59:04;100281.97;;;13.29;53.14
76201;BME280;64981;52.930;9.266;2024-03-23T09:01:30;100279.19;;;13.93;50.66
76201;BME280;64981;52.930;9.266;2024-03-23T09:03:55;100281.59;;;14.70;48.82
76201;BME280;64981;52.930;9.266;2024-03-23T09:06:21;100284.34;;;14.89;45.98
76201;BME280;64981;52.930;9.266;2024-03-23T09:08:46;100272.34;;;15.06;45.03
76201;BME280;64981;52.930;9.266;2024-03-23T09:11:13;100274.78;;;15.08;43.88
76201;BME280;64981;52.930;9.266;2024-03-23T09:13:39;100277.06;;;14.50;45.24
76201;BME280;64981;52.930;9.266;2024-03-23T09:16:06;100275.81;;;14.06;44.92
76201;BME280;64981;52.930;9.266;2024-03-23T09:18:33;100282.75;;;13.51;46.37
76201;BME280;64981;52.930;9.266;2024-03-23T09:21:00;100280.66;;;13.68;46.91
76201;BME280;64981;52.930;9.266;2024-03-23T09:23:26;100278.72;;;13.55;47.61
76201;BME280;64981;52.930;9.266;2024-03-23T09:25:52;100283.59;;;13.51;48.01
76201;BME280;64981;52.930;9.266;2024-03-23T09:28:18;100284.38;;;13.24;48.64
76201;BME280;64981;52.930;9.266;2024-03-23T09:30:43;100282.91;;;13.43;47.24
76201;BME280;64981;52.930;9.266;2024-03-23T09:33:10;100283.09;;;13.20;47.82
76201;BME280;64981;52.930;9.266;2024-03-23T09:35:38;100276.44;;;13.52;47.02
76201;BME280;64981;52.930;9.266;2024-03-23T09:38:04;100272.19;;;13.85;45.88
76201;BME280;64981;52.930;9.266;2024-03-23T09:40:29;100274.06;;;14.26;45.20
76201;BME280;64981;52.930;9.266;2024-03-23T09:42:55;100263.13;;;14.42;43.56
76201;BME280;64981;52.930;9.266;2024-03-23T09:45:23;100260.34;;;14.70;43.71
76201;BME280;64981;52.930;9.266;2024-03-23T09:47:51;100255.03;;;14.76;43.63
76201;BME280;64981;52.930;9.266;2024-03-23T09:50:17;100257.81;;;14.42;43.50
76201;BME280;64981;52.930;9.266;2024-03-23T09:52:42;100264.53;;;14.31;43.48
76201;BME280;64981;52.930;9.266;2024-03-23T09:55:09;100269.50;;;14.07;44.26
76201;BME280;64981;52.930;9.266;2024-03-23T09:57:35;100292.75;;;13.07;46.30
76201;BME280;64981;52.930;9.266;2024-03-23T10:00:01;100291.72;;;12.36;48.96
76201;BME280;64981;52.930;9.266;2024-03-23T10:02:28;100299.25;;;12.03;51.04
76201;BME280;64981;52.930;9.266;2024-03-23T10:04:54;100321.19;;;11.06;53.39
76201;BME280;64981;52.930;9.266;2024-03-23T10:07:21;100323.00;;;10.44;56.40
76201;BME280;64981;52.930;9.266;2024-03-23T10:09:47;100312.78;;;9.86;58.14
76201;BME280;64981;52.930;9.266;2024-03-23T10:12:16;100316.41;;;9.53;59.33
76201;BME280;64981;52.930;9.266;2024-03-23T10:14:42;100311.81;;;9.14;61.16
76201;BME280;64981;52.930;9.266;2024-03-23T10:19:52;100292.66;;;8.88;62.75
76201;BME280;64981;52.930;9.266;2024-03-23T10:22:19;100293.00;;;8.77;64.45
76201;BME280;64981;52.930;9.266;2024-03-23T10:24:46;100295.63;;;8.85;65.98
76201;BME280;64981;52.930;9.266;2024-03-23T10:27:16;100293.03;;;9.01;67.00
76201;BME280;64981;52.930;9.266;2024-03-23T10:29:44;100292.53;;;9.38;67.45
76201;BME280;64981;52.930;9.266;2024-03-23T10:32:11;100292.00;;;9.75;65.80
76201;BME280;64981;52.930;9.266;2024-03-23T10:34:38;100298.69;;;10.57;64.73
76201;BME280;64981;52.930;9.266;2024-03-23T10:37:05;100293.88;;;11.36;59.94
76201;BME280;64981;52.930;9.266;2024-03-23T10:39:33;100288.66;;;12.18;58.92
76201;BME280;64981;52.930;9.266;2024-03-23T10:42:02;100291.13;;;13.06;55.55
76201;BME280;64981;52.930;9.266;2024-03-23T10:44:29;100287.44;;;13.77;54.06
76201;BME280;64981;52.930;9.266;2024-03-23T10:46:58;100285.53;;;14.26;52.57
76201;BME280;64981;52.930;9.266;2024-03-23T10:49:26;100281.03;;;14.27;50.40
76201;BME280;64981;52.930;9.266;2024-03-23T10:51:52;100273.00;;;14.61;50.97
76201;BME280;64981;52.930;9.266;2024-03-23T10:54:18;100271.03;;;14.83;49.99
76201;BME280;64981;52.930;9.266;2024-03-23T10:56:47;100276.59;;;14.94;50.18
76201;BME280;64981;52.930;9.266;2024-03-23T10:59:14;100269.41;;;14.95;48.67
76201;BME280;64981;52.930;9.266;2024-03-23T11:01:58;100280.72;;;15.17;47.79
76201;BME280;64981;52.930;9.266;2024-03-23T11:04:36;100269.50;;;15.21;47.01
76201;BME280;64981;52.930;9.266;2024-03-23T11:07:28;100254.34;;;15.28;46.25
76201;BME280;64981;52.930;9.266;2024-03-23T11:09:54;100245.13;;;15.57;46.77
76201;BME280;64981;52.930;9.266;2024-03-23T11:12:30;100241.41;;;15.71;45.94
76201;BME280;64981;52.930;9.266;2024-03-23T11:15:02;100249.44;;;15.32;45.43
76201;BME280;64981;52.930;9.266;2024-03-23T11:17:29;100245.69;;;14.87;45.19
76201;BME280;64981;52.930;9.266;2024-03-23T11:19:58;100250.94;;;14.67;46.93
76201;BME280;64981;52.930;9.266;2024-03-23T11:22:45;100262.25;;;13.94;48.62
76201;BME280;64981;52.930;9.266;2024-03-23T11:25:21;100262.72;;;12.64;50.74
76201;BME280;64981;52.930;9.266;2024-03-23T11:27:50;100264.91;;;12.24;53.23
76201;BME280;64981;52.930;9.266;2024-03-23T11:30:18;100267.19;;;11.98;53.86
76201;BME280;64981;52.930;9.266;2024-03-23T11:32:46;100256.34;;;11.93;54.75
76201;BME280;64981;52.930;9.266;2024-03-23T11:35:25;100263.63;;;11.76;56.42
76201;BME280;64981;52.930;9.266;2024-03-23T11:38:10;100262.78;;;11.61;56.14
76201;BME280;64981;52.930;9.266;2024-03-23T11:40:38;100261.81;;;11.77;56.54
76201;BME280;64981;52.930;9.266;2024-03-23T11:43:05;100244.19;;;12.13;54.37
76201;BME280;64981;52.930;9.266;2024-03-23T11:45:36;100249.97;;;12.38;52.15
76201;BME280;64981;52.930;9.266;2024-03-23T11:48:14;100257.13;;;13.09;50.97
76201;BME280;64981;52.930;9.266;2024-03-23T11:50:43;100236.97;;;13.70;49.20
76201;BME280;64981;52.930;9.266;2024-03-23T11:53:21;100239.63;;;14.45;46.27
76201;BME280;64981;52.930;9.266;2024-03-23T11:55:52;100229.44;;;14.55;45.43
76201;BME280;64981;52.930;9.266;2024-03-23T11:58:21;100235.59;;;14.56;44.64
76201;BME280;64981;52.930;9.266;2024-03-23T12:00:52;100239.72;;;14.72;43.70
76201;BME280;64981;52.930;9.266;2024-03-23T12:03:19;100243.69;;;15.15;44.34
76201;BME280;64981;52.930;9.266;2024-03-23T12:05:48;100237.75;;;15.39;42.28
76201;BME280;64981;52.930;9.266;2024-03-23T12:08:17;100231.16;;;14.96;43.20
76201;BME280;64981;52.930;9.266;2024-03-23T12:10:46;100236.94;;;15.06;43.05
76201;BME280;64981;52.930;9.266;2024-03-23T12:13:15;100245.28;;;14.90;43.54
76201;BME280;64981;52.930;9.266;2024-03-23T12:15:40;100231.41;;;15.14;45.29
76201;BME280;64981;52.930;9.266;2024-03-23T12:18:09;100236.28;;;15.04;42.55
76201;BME280;64981;52.930;9.266;2024-03-23T12:20:37;100243.03;;;14.93;43.36
76201;BME280;64981;52.930;9.266;2024-03-23T12:23:06;100230.59;;;15.14;43.86
76201;BME280;64981;52.930;9.266;2024-03-23T12:25:32;100229.91;;;14.92;43.44
76201;BME280;64981;52.930;9.266;2024-03-23T12:27:59;100216.19;;;14.62;44.26
76201;BME280;64981;52.930;9.266;2024-03-23T12:30:25;100220.13;;;14.99;44.54
76201;BME280;64981;52.930;9.266;2024-03-23T12:32:50;100206.38;;;14.69;43.91
76201;BME280;64981;52.930;9.266;2024-03-23T12:35:16;100197.88;;;15.06;43.37
76201;BME280;64981;52.930;9.266;2024-03-23T12:37:41;100204.00;;;15.07;42.72
76201;BME280;64981;52.930;9.266;2024-03-23T12:40:08;100198.88;;;15.19;42.58
76201;BME280;64981;52.930;9.266;2024-03-23T12:42:34;100211.75;;;15.48;42.63
76201;BME280;64981;52.930;9.266;2024-03-23T12:45:00;100220.72;;;15.01;41.68
76201;BME280;64981;52.930;9.266;2024-03-23T12:47:25;100225.06;;;14.28;44.17
76201;BME280;64981;52.930;9.266;2024-03-23T12:49:51;100222.00;;;14.25;43.37
76201;BME280;64981;52.930;9.266;2024-03-23T12:52:17;100224.19;;;14.15;44.83
76201;BME280;64981;52.930;9.266;2024-03-23T12:54:43;100224.88;;;14.36;44.32
76201;BME280;64981;52.930;9.266;2024-03-23T12:57:08;100229.47;;;14.08;45.00
76201;BME280;64981;52.930;9.266;2024-03-23T12:59:34;100256.84;;;14.09;43.54
76201;BME280;64981;52.930;9.266;2024-03-23T13:02:01;100288.78;;;13.66;44.56
76201;BME280;64981;52.930;9.266;2024-03-23T13:04:26;100296.84;;;12.88;45.91
76201;BME280;64981;52.930;9.266;2024-03-23T13:06:52;100306.53;;;12.30;48.34
76201;BME280;64981;52.930;9.266;2024-03-23T13:09:17;100315.59;;;11.69;51.51
76201;BME280;64981;52.930;9.266;2024-03-23T13:11:43;100301.81;;;10.91;54.00
76201;BME280;64981;52.930;9.266;2024-03-23T13:14:09;100274.78;;;10.50;54.69
76201;BME280;64981;52.930;9.266;2024-03-23T13:16:35;100284.16;;;10.14;56.58
76201;BME280;64981;52.930;9.266;2024-03-23T13:19:01;100287.97;;;10.27;57.09
76201;BME280;64981;52.930;9.266;2024-03-23T13:21:26;100285.38;;;9.87;60.47
76201;BME280;64981;52.930;9.266;2024-03-23T13:23:54;100269.47;;;9.64;61.40
76201;BME280;64981;52.930;9.266;2024-03-23T13:26:20;100280.50;;;9.68;60.14
76201;BME280;64981;52.930;9.266;2024-03-23T13:28:46;100258.06;;;9.72;61.50
76201;BME280;64981;52.930;9.266;2024-03-23T13:31:12;100254.66;;;9.47;62.87
76201;BME280;64981;52.930;9.266;2024-03-23T13:33:37;100265.16;;;9.63;63.22
76201;BME280;64981;52.930;9.266;2024-03-23T13:36:03;100244.22;;;9.70;63.78
76201;BME280;64981;52.930;9.266;2024-03-23T13:38:29;100246.44;;;10.05;64.09
76201;BME280;64981;52.930;9.266;2024-03-23T13:40:59;100242.81;;;10.45;61.06
76201;BME280;64981;52.930;9.266;2024-03-23T13:43:30;100242.50;;;10.71;61.88
76201;BME280;64981;52.930;9.266;2024-03-23T13:45:58;100240.22;;;10.91;56.96
76201;BME280;64981;52.930;9.266;2024-03-23T13:48:25;100237.88;;;11.18;56.75